Aérodrome :
LOGIN :

S'inscrire | Disclaimer

   EN    FR    IT 

 










Légende :    VFR   VFR Marginal   IFR   IFR Intensif   IFR Très Intensif
Visi : 
Plafond : 
>= 8 km
>= 3000ft
5 à 8 km
1000 à 3000 ft
1500m à 5 km
500 à 1000 ft
800 à 1500m
200 à 500 ft
< 800m
< 200 ft
Symboles :   Orages  Brouillard  Fortes neiges  Fortes précipitations  Vent > 20 kt
SIGMETs :   Divers  Orages  Givrage  Turbulence  Onde Orograph.  Cendres Volcan.







- Altitude de l'aérodrome : 992 ft


LIRV - Roma Viterbo Air Force Base (military)

DERNIER METAR :
  • 211455Z 26011KT 9999 SCT025 21/12 Q1019

METARs EXPIRÉS :
  • 211355Z 27007KT 230V300 9999 SCT025 20/10 Q1019 RMK SCT MON E SE LIB NC VIS MIN 9999 BLU
  • 211255Z 26003KT 200V360 9999 SCT024 20/08 Q1020 RMK SCT MON E SE LIB NC VIS MIN 9999 BLU

TAF TAF LIRV
Valide du 21 à 15h jusqu'au 22 à 00h UTC


211400Z 2115/2124 27008KT 9999 SCT025
BECMG 2118/2120 VRB03KT CAVOK
Pas de NOTAMs connus pour ce terrain.



MET'MAP, la Météo Aéronautique d'un coup d'oeil ! - Copyright ORBIFLY Décembre 2007 - Disclaimer

ORBIFLY MET'MAP TEAM :

Programmation & Développement : Alexandra Zaïnal
Conception & Développement : Baudouin d'Aumeries
Co-Programmation & Développement : Marc-Olivier Méhu
Soutien technique & logistique : Manuel Goepfert

Contact : metmap@orbifly.com




SOURCES & CREDITS :

   NOAA